Time;durP1;ratioP1;P1;durP2;ratioP2;P2;SDS_P1;SDS_P2;PMS_P1;PMS_P2;Temp;Humidity;BMP_temperature;BMP_pressure;BME280_temperature;BME280_humidity;BME280_pressure;Samples;Min_cycle;Max_cycle;Signal;HPM_P1;HPM_P2
2022/11/15 00:02:30;;;;;;;423.65;381.20;;;;;;;2.54;100.00;98416.19;7388777;19;20041;-51
2022/11/15 00:05:22;;;;;;;438.63;393.80;;;;;;;2.48;100.00;98426.72;7382467;19;20098;-51
2022/11/15 00:08:14;;;;;;;437.30;393.35;;;;;;;2.36;100.00;98406.25;7387847;19;20018;-48
2022/11/15 00:11:09;;;;;;;412.02;370.88;;;;;;;2.18;100.00;98405.88;7389130;19;20367;-49
2022/11/15 00:14:03;;;;;;;412.10;370.25;;;;;;;2.26;100.00;98409.13;7389288;19;20018;-49
2022/11/15 00:16:55;;;;;;;412.33;370.13;;;;;;;2.03;100.00;98399.28;7385612;19;20014;-56
2022/11/15 00:19:46;;;;;;;430.13;386.88;;;;;;;2.14;100.00;98409.44;7386840;19;20014;-48
2022/11/15 00:22:39;;;;;;;433.83;390.38;;;;;;;2.16;100.00;98400.72;7387459;19;20018;-49
2022/11/15 00:25:33;;;;;;;428.90;385.35;;;;;;;2.31;100.00;98405.53;7384111;19;20066;-48
2022/11/15 00:28:27;;;;;;;410.85;369.60;;;;;;;2.17;100.00;98399.81;7389396;19;20463;-49
2022/11/15 00:31:20;;;;;;;415.40;373.40;;;;;;;2.27;100.00;98403.03;7388780;19;20465;-49
2022/11/15 00:34:12;;;;;;;425.42;381.80;;;;;;;2.37;100.00;98410.59;7383494;19;20081;-50
2022/11/15 00:37:04;;;;;;;434.65;391.30;;;;;;;2.20;100.00;98398.88;7389661;19;20002;-47
2022/11/15 00:39:55;;;;;;;431.48;388.67;;;;;;;2.40;100.00;98397.50;7387667;19;20014;-48
2022/11/15 00:42:47;;;;;;;443.45;398.38;;;;;;;2.30;100.00;98390.00;7384230;19;20024;-47
2022/11/15 00:45:45;;;;;;;412.13;370.48;;;;;;;2.34;100.00;98387.31;7384698;19;20015;-57
2022/11/15 00:48:36;;;;;;;408.33;366.83;;;;;;;2.21;100.00;98383.28;7387045;19;20010;-49
2022/11/15 00:51:28;;;;;;;402.30;361.63;;;;;;;2.18;100.00;98385.13;7388228;19;20011;-48
2022/11/15 00:54:20;;;;;;;413.10;371.38;;;;;;;2.17;100.00;98383.41;7382474;19;20010;-52
2022/11/15 00:57:12;;;;;;;433.98;391.33;;;;;;;2.20;100.00;98384.19;7387379;19;20022;-53
2022/11/15 01:00:03;;;;;;;431.77;389.05;;;;;;;2.11;100.00;98383.56;7387934;19;20074;-48
2022/11/15 01:03:00;;;;;;;449.08;404.80;;;;;;;2.07;100.00;98374.16;7383042;19;20094;-47
2022/11/15 01:05:52;;;;;;;433.15;390.60;;;;;;;2.05;100.00;98376.78;7386617;19;20007;-49
2022/11/15 01:08:45;;;;;;;416.05;374.60;;;;;;;2.07;100.00;98376.75;7386020;19;20014;-48
2022/11/15 01:11:36;;;;;;;422.67;379.20;;;;;;;1.88;100.00;98370.28;7380745;19;20026;-50
2022/11/15 01:14:29;;;;;;;413.35;371.73;;;;;;;1.70;100.00;98365.53;7386716;19;20484;-47
2022/11/15 01:17:20;;;;;;;409.30;367.90;;;;;;;1.74;100.00;98368.00;7386685;19;20014;-48
2022/11/15 01:20:16;;;;;;;457.60;412.35;;;;;;;1.70;100.00;98357.75;7380835;19;20011;-53
2022/11/15 01:23:08;;;;;;;;;;;;;;;1.63;100.00;98364.78;7383484;19;20059;-60
2022/11/15 01:26:05;;;;;;;427.52;385.35;;;;;;;1.77;100.00;98359.31;7385867;19;19919;-48
2022/11/15 01:28:57;;;;;;;425.98;383.83;;;;;;;1.70;100.00;98352.56;7386522;19;20010;-49
2022/11/15 01:31:49;;;;;;;432.00;388.00;;;;;;;1.52;100.00;98353.81;7382824;19;20461;-47
2022/11/15 01:34:41;;;;;;;428.20;384.77;;;;;;;1.22;100.00;98352.75;7386898;19;20010;-49
2022/11/15 01:37:35;;;;;;;424.17;381.35;;;;;;;1.38;100.00;98342.91;7386990;19;20019;-51
2022/11/15 01:40:26;;;;;;;426.48;382.02;;;;;;;1.10;100.00;98341.78;7380101;19;20007;-51
2022/11/15 01:43:31;;;;;;;432.73;388.67;;;;;;;1.22;100.00;98331.16;7386350;19;20544;-49
2022/11/15 01:46:32;;;;;;;413.10;369.85;;;;;;;0.94;100.00;98330.88;7383318;19;20022;-48
2022/11/15 01:49:29;;;;;;;420.90;377.08;;;;;;;1.06;100.00;98328.06;7386224;19;20014;-48
2022/11/15 01:52:26;;;;;;;425.90;381.80;;;;;;;1.25;100.00;98310.38;7387631;19;20014;-49
2022/11/15 01:55:25;;;;;;;429.60;384.65;;;;;;;1.37;100.00;98320.47;7380219;19;20033;-59
2022/11/15 01:58:17;;;;;;;427.48;384.00;;;;;;;1.22;100.00;98316.47;7387427;19;20078;-48
2022/11/15 02:01:08;;;;;;;425.42;381.80;;;;;;;1.12;100.00;98308.94;7383266;19;20018;-47
2022/11/15 02:04:06;;;;;;;438.88;393.67;;;;;;;1.13;100.00;98301.13;7382252;19;20010;-49
2022/11/15 02:06:58;;;;;;;421.77;378.58;;;;;;;1.06;100.00;98309.06;7384932;19;20074;-54
2022/11/15 02:09:51;;;;;;;410.10;368.35;;;;;;;0.78;100.00;98301.00;7384613;19;20499;-47
2022/11/15 02:12:47;;;;;;;403.52;361.48;;;;;;;0.96;100.00;98287.69;7384302;19;20105;-50
2022/11/15 02:15:47;;;;;;;418.10;374.27;;;;;;;0.99;100.00;98279.88;7381029;19;20342;-51
2022/11/15 02:18:44;;;;;;;421.45;378.55;;;;;;;0.89;100.00;98285.25;7385559;19;20019;-49
2022/11/15 02:21:46;;;;;;;426.88;383.52;;;;;;;0.88;100.00;98283.56;7383625;19;20489;-50
2022/11/15 02:25:07;;;;;;;438.27;394.10;;;;;;;0.61;100.00;98284.13;7383222;19;20018;-48
2022/11/15 02:28:20;;;;;;;437.70;394.02;;;;;;;0.96;100.00;98273.88;7385022;19;20015;-54
2022/11/15 02:31:24;;;;;;;418.63;375.80;;;;;;;0.59;100.00;98272.94;7384868;19;20089;-48
2022/11/15 02:34:27;;;;;;;405.63;363.27;;;;;;;0.88;100.00;98278.38;7384719;19;20011;-49
2022/11/15 02:37:25;;;;;;;404.17;362.33;;;;;;;0.77;100.00;98270.84;7386097;19;20977;-52
2022/11/15 02:40:23;;;;;;;423.27;379.48;;;;;;;0.61;100.00;98271.19;7385716;19;20038;-48
2022/11/15 02:49:42;;;;;;;420.98;378.40;;;;;;;0.34;100.00;98257.06;7392493;19;20392;-48
2022/11/15 02:52:33;;;;;;;421.15;378.33;;;;;;;0.60;100.00;98246.19;7393945;19;20078;-48
2022/11/15 02:55:36;;;;;;;414.88;372.45;;;;;;;0.66;100.00;98241.75;7393037;19;20078;-49
2022/11/15 02:58:59;;;;;;;432.20;387.90;;;;;;;0.39;100.00;98242.28;7385648;19;20018;-56
2022/11/15 03:02:10;;;;;;;423.70;380.45;;;;;;;0.40;100.00;98236.25;7387073;19;20033;-51
2022/11/15 03:05:06;;;;;;;431.65;387.38;;;;;;;0.51;100.00;98241.19;7391584;19;20022;-48
2022/11/15 03:08:07;;;;;;;424.30;380.77;;;;;;;0.55;100.00;98232.50;7386339;19;20477;-56
2022/11/15 03:11:09;;;;;;;437.52;393.88;;;;;;;0.52;100.00;98229.97;7389693;19;20010;-49
2022/11/15 03:14:09;;;;;;;442.33;398.02;;;;;;;0.47;100.00;98222.31;7392326;19;20048;-48
2022/11/15 03:17:15;;;;;;;452.42;407.88;;;;;;;0.45;100.00;98223.19;7391763;19;20014;-49
2022/11/15 03:20:10;;;;;;;427.30;383.40;;;;;;;0.38;100.00;98226.78;7393300;19;20010;-49
2022/11/15 03:23:07;;;;;;;443.25;397.58;;;;;;;0.41;100.00;98213.81;7384536;19;20030;-48
2022/11/15 03:26:00;;;;;;;;;;;;;;;0.26;100.00;98216.69;7391266;19;20014;-47
2022/11/15 03:28:56;;;;;;;434.15;389.70;;;;;;;0.33;100.00;98215.69;7389463;19;19914;-48
2022/11/15 03:31:52;;;;;;;448.70;403.70;;;;;;;0.13;100.00;98212.66;7389275;19;20011;-49
2022/11/15 03:34:51;;;;;;;438.65;393.45;;;;;;;0.02;100.00;98209.41;7384306;19;20105;-48
2022/11/15 03:37:47;;;;;;;419.55;376.17;;;;;;;0.42;100.00;98200.00;7391634;19;20079;-50
2022/11/15 03:40:45;;;;;;;417.85;374.20;;;;;;;0.21;100.00;98198.66;7391817;19;20006;-49
2022/11/15 03:43:43;;;;;;;429.55;384.85;;;;;;;0.38;100.00;98196.63;7390524;19;20010;-49
2022/11/15 03:46:39;;;;;;;439.38;393.80;;;;;;;0.13;100.00;98184.22;7381981;19;20022;-49
2022/11/15 03:49:38;;;;;;;421.77;377.95;;;;;;;0.18;100.00;98185.84;7390876;19;20391;-48
2022/11/15 03:52:32;;;;;;;414.15;370.70;;;;;;;0.26;100.00;98183.06;7391003;19;20010;-52
2022/11/15 03:55:26;;;;;;;406.65;363.75;;;;;;;0.21;100.00;98170.22;7391567;19;20045;-49
2022/11/15 03:58:18;;;;;;;419.25;374.67;;;;;;;-0.02;100.00;98169.84;7383972;19;20026;-48
2022/11/15 04:01:09;;;;;;;402.38;359.50;;;;;;;-0.00;100.00;98169.81;7387913;19;20485;-49
2022/11/15 04:04:01;;;;;;;425.85;382.13;;;;;;;-0.03;100.00;98168.13;7389784;19;20014;-51
2022/11/15 04:06:53;;;;;;;434.60;389.50;;;;;;;-0.26;100.00;98166.84;7383760;19;20014;-49
2022/11/15 04:12:52;;;;;;;443.80;399.20;;;;;;;-0.11;100.00;98151.06;7390849;19;20010;-48
2022/11/15 04:15:44;;;;;;;439.00;394.65;;;;;;;-0.12;100.00;98159.72;7390405;19;20477;-48
2022/11/15 04:18:35;;;;;;;454.35;408.33;;;;;;;0.01;100.00;98159.44;7384106;19;20010;-48
2022/11/15 04:24:33;;;;;;;447.92;403.05;;;;;;;-0.03;100.00;98157.81;7388088;19;20038;-49
2022/11/15 04:27:27;;;;;;;443.40;398.27;;;;;;;-0.25;100.00;98158.22;7387513;19;20533;-48
2022/11/15 04:30:19;;;;;;;434.10;389.15;;;;;;;-0.25;100.00;98153.91;7384579;19;20019;-55
2022/11/15 04:33:10;;;;;;;426.08;381.75;;;;;;;-0.20;100.00;98146.09;7384747;19;20074;-48
2022/11/15 04:39:09;;;;;;;447.80;402.20;;;;;;;-0.33;100.00;98158.38;7387750;19;20469;-55
2022/11/15 04:42:00;;;;;;;436.58;391.90;;;;;;;-0.11;100.00;98151.06;7386511;19;20018;-59
2022/11/15 04:44:55;;;;;;;425.60;381.40;;;;;;;-0.15;100.00;98154.59;7388768;19;20021;-52
2022/11/15 04:47:49;;;;;;;419.52;376.00;;;;;;;-0.26;100.00;98148.78;7388113;19;20015;-52
2022/11/15 04:50:41;;;;;;;413.60;369.42;;;;;;;-0.13;100.00;98153.69;7383174;19;20014;-49
2022/11/15 04:53:32;;;;;;;431.58;388.35;;;;;;;-0.27;100.00;98147.91;7386891;19;20353;-48
2022/11/15 04:56:24;;;;;;;432.67;389.17;;;;;;;-0.25;100.00;98143.59;7388885;19;20018;-48
2022/11/15 04:59:16;;;;;;;465.45;418.25;;;;;;;-0.09;100.00;98144.97;7381659;19;20010;-48
2022/11/15 05:02:10;;;;;;;430.77;386.52;;;;;;;-0.06;100.00;98160.44;7384490;19;20014;-49
2022/11/15 05:04:59;;;;;;;432.98;388.40;;;;;;;-0.16;100.00;98153.72;7387348;19;20014;-49
2022/11/15 05:07:51;;;;;;;431.70;386.08;;;;;;;0.00;100.00;98150.00;7381677;19;20010;-51
2022/11/15 05:10:43;;;;;;;417.80;373.67;;;;;;;-0.19;100.00;98146.06;7387438;19;20003;-57
2022/11/15 05:13:34;;;;;;;431.35;386.50;;;;;;;-0.12;100.00;98141.63;7386724;19;20007;-48
2022/11/15 05:16:26;;;;;;;439.63;393.42;;;;;;;-0.23;100.00;98128.91;7381753;19;20457;-48
2022/11/15 05:19:20;;;;;;;424.70;380.67;;;;;;;-0.27;100.00;98127.25;7385955;19;20014;-52
2022/11/15 05:22:12;;;;;;;438.80;393.75;;;;;;;-0.38;100.00;98136.09;7386244;19;20015;-49
2022/11/15 05:25:03;;;;;;;458.92;412.63;;;;;;;-0.09;100.00;98129.47;7382632;19;20025;-48
2022/11/15 05:27:55;;;;;;;472.17;424.98;;;;;;;-0.37;100.00;98130.03;7385914;19;20457;-48
2022/11/15 05:30:47;;;;;;;487.00;439.00;;;;;;;-0.23;100.00;98131.50;7386761;19;20074;-48
2022/11/15 05:33:41;;;;;;;484.83;435.60;;;;;;;-0.19;100.00;98127.09;7385600;19;20014;-48
2022/11/15 05:36:41;;;;;;;478.48;432.35;;;;;;;-0.39;100.00;98126.66;7386180;19;20010;-58
2022/11/15 05:39:33;;;;;;;483.48;435.05;;;;;;;-0.44;100.00;98134.47;7386795;19;20017;-49
2022/11/15 05:42:25;;;;;;;469.92;423.05;;;;;;;-0.23;100.00;98130.63;7384185;19;20367;-52
2022/11/15 05:45:17;;;;;;;485.65;436.02;;;;;;;-0.33;100.00;98134.25;7379027;19;20014;-48
2022/11/15 05:48:14;;;;;;;480.45;433.17;;;;;;;-0.51;100.00;98130.28;7385638;19;20015;-47
2022/11/15 05:51:08;;;;;;;473.52;424.98;;;;;;;-0.47;100.00;98120.75;7383809;19;20010;-47
2022/11/15 05:54:04;;;;;;;479.13;432.42;;;;;;;-0.21;100.00;98132.31;7371673;19;20010;-50
2022/11/15 05:56:57;;;;;;;636.95;524.70;;;;;;;-0.26;100.00;98130.69;7378696;19;20011;-53
2022/11/15 05:59:49;;;;;;;627.47;552.92;;;;;;;-0.01;100.00;98134.50;7384472;19;20584;-52
2022/11/15 06:02:43;;;;;;;703.35;572.05;;;;;;;-0.34;100.00;98130.84;7380255;19;20015;-55
2022/11/15 06:05:35;;;;;;;604.92;540.03;;;;;;;-0.22;100.00;98135.78;7377200;19;20045;-53
2022/11/15 06:08:27;;;;;;;572.30;510.73;;;;;;;-0.04;100.00;98121.66;7382945;19;20010;-51
2022/11/15 06:11:21;;;;;;;567.83;507.20;;;;;;;-0.25;100.00;98130.66;7383140;19;20011;-49
2022/11/15 06:14:13;;;;;;;581.63;521.83;;;;;;;-0.25;100.00;98133.25;7384052;19;20006;-49
2022/11/15 06:17:05;;;;;;;562.65;505.80;;;;;;;-0.07;100.00;98148.41;7388363;19;20011;-48
2022/11/15 06:19:57;;;;;;;493.17;443.92;;;;;;;-0.14;100.00;98141.66;7389995;19;20006;-57
2022/11/15 06:22:48;;;;;;;508.65;457.35;;;;;;;-0.07;100.00;98137.19;7384030;19;20010;-50
2022/11/15 06:25:40;;;;;;;690.17;613.85;;;;;;;-0.05;100.00;98141.44;7386752;19;20019;-50
2022/11/15 06:28:35;;;;;;;478.20;430.73;;;;;;;-0.09;100.00;98142.41;7389580;19;20449;-48
2022/11/15 06:31:27;;;;;;;457.45;411.13;;;;;;;-0.08;100.00;98140.69;7387526;19;20010;-49
2022/11/15 06:34:19;;;;;;;466.77;419.42;;;;;;;-0.17;100.00;98133.94;7387223;19;20011;-59
2022/11/15 06:37:10;;;;;;;480.45;431.95;;;;;;;-0.25;100.00;98137.56;7388626;19;20017;-50
2022/11/15 06:40:02;;;;;;;467.13;419.35;;;;;;;-0.01;100.00;98144.84;7390095;19;20003;-48
2022/11/15 06:42:54;;;;;;;508.35;458.08;;;;;;;0.06;100.00;98144.69;7382826;19;20006;-55
2022/11/15 06:45:51;;;;;;;463.15;415.83;;;;;;;0.10;100.00;98148.06;7389298;19;20022;-51
2022/11/15 06:48:43;;;;;;;477.05;430.63;;;;;;;0.20;100.00;98137.50;7390200;19;20021;-49
2022/11/15 06:51:35;;;;;;;474.63;427.60;;;;;;;-0.17;100.00;98141.69;7383980;19;20006;-49
2022/11/15 06:54:27;;;;;;;460.17;415.30;;;;;;;-0.06;100.00;98138.94;7391754;19;20010;-49
2022/11/15 06:57:19;;;;;;;479.67;433.52;;;;;;;-0.14;100.00;98141.66;7390834;19;20076;-50
2022/11/15 07:00:12;;;;;;;461.98;415.27;;;;;;;-0.18;100.00;98139.13;7384264;19;20011;-49
2022/11/15 07:03:09;;;;;;;498.25;449.55;;;;;;;-0.26;100.00;98141.03;7387332;19;20011;-57
2022/11/15 07:06:02;;;;;;;546.92;495.35;;;;;;;0.02;100.00;98132.69;7387573;19;20030;-52
2022/11/15 07:08:54;;;;;;;521.25;471.73;;;;;;;-0.13;100.00;98129.59;7386658;19;20018;-52
2022/11/15 07:11:46;;;;;;;692.03;616.53;;;;;;;-0.01;100.00;98142.25;7383943;19;20484;-60
2022/11/15 07:14:38;;;;;;;560.13;503.23;;;;;;;0.02;100.00;98143.03;7387448;19;20018;-51
2022/11/15 07:17:30;;;;;;;476.45;429.73;;;;;;;0.08;100.00;98139.50;7386696;19;20078;-50
2022/11/15 07:20:24;;;;;;;513.83;465.02;;;;;;;0.02;100.00;98139.63;7383016;19;20010;-49
2022/11/15 07:23:16;;;;;;;511.73;463.13;;;;;;;0.05;100.00;98135.22;7388065;19;20007;-49
2022/11/15 07:26:08;;;;;;;512.83;464.27;;;;;;;0.15;100.00;98134.19;7386662;19;20470;-49
2022/11/15 07:28:59;;;;;;;621.40;559.15;;;;;;;-0.01;100.00;98135.38;7386081;19;20516;-49
2022/11/15 07:31:54;;;;;;;488.02;439.30;;;;;;;0.01;100.00;98124.97;7389068;19;20010;-50
2022/11/15 07:34:46;;;;;;;487.38;440.02;;;;;;;0.27;100.00;98120.13;7383154;19;20002;-51
2022/11/15 07:37:40;;;;;;;517.13;467.23;;;;;;;0.31;100.00;98122.63;7387832;19;20043;-52
2022/11/15 07:40:32;;;;;;;485.92;439.17;;;;;;;0.38;100.00;98126.78;7388346;19;20011;-59
2022/11/15 07:43:24;;;;;;;486.08;439.05;;;;;;;0.38;100.00;98123.34;7388380;19;20021;-53
2022/11/15 07:46:16;;;;;;;578.00;518.42;;;;;;;0.38;100.00;98124.19;7386320;19;20132;-48
2022/11/15 07:49:07;;;;;;;538.97;483.85;;;;;;;0.60;100.00;98128.03;7384842;19;20014;-53
2022/11/15 07:52:01;;;;;;;633.97;566.58;;;;;;;0.84;100.00;98132.66;7388463;19;20011;-48
2022/11/15 07:54:56;;;;;;;593.35;530.13;;;;;;;0.79;100.00;98126.72;7388152;19;20030;-49
2022/11/15 07:57:48;;;;;;;602.30;538.42;;;;;;;0.88;100.00;98128.25;7382311;19;20099;-48
2022/11/15 08:00:40;;;;;;;600.75;537.45;;;;;;;0.96;100.00;98113.38;7386520;19;20083;-53
2022/11/15 08:03:32;;;;;;;579.45;518.20;;;;;;;0.91;100.00;98104.88;7386024;19;20015;-49
2022/11/15 08:06:24;;;;;;;591.92;529.58;;;;;;;1.19;100.00;98119.72;7373003;19;20006;-58
2022/11/15 08:09:15;;;;;;;581.40;519.10;;;;;;;1.23;100.00;98113.56;7379565;19;20484;-49
2022/11/15 08:12:10;;;;;;;574.60;514.10;;;;;;;1.41;100.00;98105.34;7384434;19;20457;-49
2022/11/15 08:15:02;;;;;;;595.70;532.10;;;;;;;1.42;100.00;98104.44;7382267;19;20006;-49
2022/11/15 08:18:00;;;;;;;562.95;504.00;;;;;;;1.49;100.00;98098.19;7384811;19;20034;-60
2022/11/15 08:20:52;;;;;;;480.60;432.23;;;;;;;1.50;100.00;98099.94;7386975;19;20019;-50
2022/11/15 08:23:44;;;;;;;548.63;494.13;;;;;;;1.50;100.00;98096.47;7384239;19;20054;-53
2022/11/15 08:26:36;;;;;;;588.90;534.88;;;;;;;1.64;100.00;98087.44;7384555;19;20273;-49
2022/11/15 08:29:30;;;;;;;557.17;505.27;;;;;;;1.71;100.00;98084.69;7387410;19;20010;-49
2022/11/15 08:32:22;;;;;;;581.67;523.75;;;;;;;1.68;100.00;98083.03;7386135;19;20034;-52
2022/11/15 08:35:14;;;;;;;576.92;520.63;;;;;;;1.78;100.00;98075.84;7382122;19;20077;-49
2022/11/15 08:38:06;;;;;;;505.95;457.50;;;;;;;1.95;100.00;98065.84;7386225;19;20015;-50
2022/11/15 08:40:58;;;;;;;506.38;457.92;;;;;;;1.90;100.00;98072.91;7387509;19;20022;-48
2022/11/15 08:43:50;;;;;;;508.58;458.60;;;;;;;1.99;100.00;98072.66;7378748;19;20342;-52
2022/11/15 08:46:45;;;;;;;474.90;428.35;;;;;;;2.13;100.00;98070.50;7383458;19;20566;-49
2022/11/15 08:49:37;;;;;;;468.05;421.83;;;;;;;2.22;100.00;98071.09;7388686;19;20014;-48
2022/11/15 08:52:28;;;;;;;492.27;443.48;;;;;;;2.27;100.00;98073.56;7384359;19;20018;-49
2022/11/15 08:55:20;;;;;;;501.50;453.27;;;;;;;2.22;100.00;98076.28;7383686;19;20003;-49
2022/11/15 08:58:12;;;;;;;495.02;447.63;;;;;;;2.08;100.00;98085.34;7384827;19;20003;-52
2022/11/15 09:01:03;;;;;;;510.58;461.73;;;;;;;2.17;100.00;98083.34;7383282;19;20010;-49
2022/11/15 09:03:57;;;;;;;502.27;454.25;;;;;;;2.33;100.00;98073.38;7383540;19;20342;-49
2022/11/15 09:06:49;;;;;;;493.50;444.10;;;;;;;2.57;100.00;98070.03;7384616;19;20019;-49
2022/11/15 09:09:41;;;;;;;467.67;419.00;;;;;;;2.72;100.00;98070.41;7380518;19;20150;-50
2022/11/15 09:12:33;;;;;;;504.80;453.70;;;;;;;2.79;100.00;98058.94;7377024;19;20014;-60
2022/11/15 09:15:27;;;;;;;479.55;430.45;;;;;;;2.97;100.00;98060.94;7387715;19;20022;-50
2022/11/15 09:18:22;;;;;;;507.67;456.17;;;;;;;3.18;100.00;98059.41;7386759;19;20438;-50
2022/11/15 09:21:16;;;;;;;528.30;475.30;;;;;;;3.44;100.00;98047.22;7383603;19;20457;-49
2022/11/15 09:24:08;;;;;;;517.13;466.13;;;;;;;3.47;100.00;98038.47;7386152;19;20014;-49
2022/11/15 09:27:03;;;;;;;545.50;493.45;;;;;;;3.60;100.00;98032.78;7383847;19;20010;-49
2022/11/15 09:29:57;;;;;;;628.67;564.80;;;;;;;3.96;100.00;98026.28;7385331;19;20376;-54
2022/11/15 09:32:49;;;;;;;700.25;626.67;;;;;;;4.73;100.00;98023.28;7382485;19;20022;-60
2022/11/15 09:35:42;;;;;;;621.97;560.25;;;;;;;5.37;100.00;98021.50;7385106;19;20020;-48
2022/11/15 09:38:37;;;;;;;537.60;486.20;;;;;;;5.45;100.00;98008.97;7385599;19;20011;-48
2022/11/15 09:41:46;;;;;;;568.38;513.45;;;;;;;5.57;100.00;98014.50;7379139;19;20015;-53
2022/11/15 09:44:49;;;;;;;583.90;524.75;;;;;;;5.70;100.00;98010.44;7377530;19;20454;-53
2022/11/15 09:47:55;;;;;;;575.47;522.40;;;;;;;6.03;100.00;98008.09;7381922;19;20014;-48
2022/11/15 09:50:54;;;;;;;507.15;457.95;;;;;;;5.74;100.00;97995.50;7380116;19;20015;-48
2022/11/15 09:53:33;;;;;;;504.60;454.35;;;;;;;5.98;100.00;97997.00;7382623;19;20014;-49
2022/11/15 09:56:18;;;;;;;536.42;485.25;;;;;;;6.12;100.00;97997.22;7383925;19;20476;-48
2022/11/15 09:59:05;;;;;;;589.53;533.65;;;;;;;6.38;100.00;97989.94;7385536;19;20545;-48
2022/11/15 10:01:49;;;;;;;555.03;502.83;;;;;;;6.30;100.00;97986.81;7385618;19;20046;-49
2022/11/15 10:04:22;;;;;;;514.85;464.80;;;;;;;5.92;100.00;97998.13;7384782;19;20026;-48
2022/11/15 10:07:01;;;;;;;481.67;433.85;;;;;;;6.39;100.00;97981.16;7387256;19;20784;-49
2022/11/15 10:09:42;;;;;;;467.70;420.55;;;;;;;6.33;100.00;97986.66;7386764;19;20015;-48
2022/11/15 10:12:20;;;;;;;473.75;426.17;;;;;;;6.41;100.00;97987.19;7384945;19;20036;-48
2022/11/15 10:14:57;;;;;;;506.55;457.08;;;;;;;6.55;100.00;97986.50;7385256;19;20023;-47
2022/11/15 10:17:50;;;;;;;503.65;454.42;;;;;;;6.85;100.00;97970.19;7384365;19;20018;-48
2022/11/15 10:20:26;;;;;;;523.67;473.08;;;;;;;6.56;100.00;97970.78;7385471;19;20011;-49
2022/11/15 10:23:03;;;;;;;487.55;439.80;;;;;;;7.04;100.00;97954.44;7385372;19;20025;-49
2022/11/15 10:25:38;;;;;;;473.52;426.05;;;;;;;6.67;100.00;97955.41;7386886;19;20015;-48
2022/11/15 10:28:21;;;;;;;462.15;415.92;;;;;;;6.87;100.00;97947.44;7384315;19;20499;-52
2022/11/15 10:30:56;;;;;;;469.25;421.73;;;;;;;6.99;100.00;97948.59;7385318;19;20010;-50
2022/11/15 10:33:43;;;;;;;521.50;471.92;;;;;;;6.93;100.00;97941.06;7384221;19;20011;-48
2022/11/15 10:36:28;;;;;;;558.90;505.45;;;;;;;6.85;100.00;97938.81;7385902;19;20002;-49
2022/11/15 10:39:03;;;;;;;694.05;619.22;;;;;;;6.70;100.00;97928.28;7385887;19;20049;-50
2022/11/15 10:41:41;;;;;;;472.23;425.17;;;;;;;6.70;100.00;97931.72;7385698;19;20006;-47
2022/11/15 10:44:32;;;;;;;485.77;437.67;;;;;;;6.93;100.00;97925.38;7382416;19;20010;-47
2022/11/15 10:47:30;;;;;;;501.00;452.25;;;;;;;6.86;100.00;97926.59;7383882;19;20509;-48
2022/11/15 10:50:10;;;;;;;473.88;425.75;;;;;;;6.97;100.00;97919.94;7380940;19;20521;-50
2022/11/15 10:52:51;;;;;;;465.88;419.35;;;;;;;6.85;100.00;97917.91;7383652;19;20018;-47
2022/11/15 10:55:32;;;;;;;498.02;448.45;;;;;;;7.05;100.00;97912.53;7381184;19;20011;-49
2022/11/15 10:58:11;;;;;;;517.92;466.88;;;;;;;7.30;100.00;97907.75;7383703;19;20009;-47
2022/11/15 11:00:47;;;;;;;517.45;467.42;;;;;;;7.33;100.00;97910.22;7385270;19;20031;-48
2022/11/15 11:03:37;;;;;;;499.27;451.48;;;;;;;7.56;100.00;97895.91;7389963;19;20351;-48
2022/11/15 11:06:13;;;;;;;512.38;463.30;;;;;;;7.27;100.00;97896.56;7391423;19;20525;-47
2022/11/15 11:08:59;;;;;;;507.77;459.55;;;;;;;7.29;100.00;97895.56;7390574;19;20348;-49
2022/11/15 11:11:50;;;;;;;500.77;452.23;;;;;;;7.27;100.00;97892.19;7389039;19;20010;-47
2022/11/15 11:14:33;;;;;;;471.48;425.15;;;;;;;7.78;100.00;97891.22;7391041;19;20065;-56
2022/11/15 11:17:19;;;;;;;466.80;419.65;;;;;;;7.48;100.00;97888.47;7390388;19;20014;-47
2022/11/15 11:20:06;;;;;;;531.55;480.83;;;;;;;7.49;100.00;97890.16;7385745;19;20070;-48
2022/11/15 11:22:48;;;;;;;528.33;477.75;;;;;;;7.76;100.00;97878.19;7392416;19;20010;-48
2022/11/15 11:25:34;;;;;;;515.55;464.88;;;;;;;7.66;100.00;97876.19;7387717;19;20014;-47
2022/11/15 11:28:32;;;;;;;498.75;450.20;;;;;;;7.67;100.00;97880.47;7391335;19;20029;-51
2022/11/15 11:31:19;;;;;;;510.73;460.77;;;;;;;7.50;100.00;97876.13;7389755;19;20018;-47
2022/11/15 11:34:06;;;;;;;548.47;495.40;;;;;;;7.57;100.00;97869.66;7383626;19;20022;-50
2022/11/15 11:36:50;;;;;;;638.00;575.72;;;;;;;7.69;100.00;97870.78;7387711;19;20042;-49
2022/11/15 11:39:33;;;;;;;545.05;491.88;;;;;;;7.59;100.00;97872.19;7388360;19;20359;-49
2022/11/15 11:42:16;;;;;;;609.33;551.88;;;;;;;8.10;100.00;97867.59;7388913;19;20037;-48
2022/11/15 11:45:00;;;;;;;591.70;533.22;;;;;;;7.84;100.00;97859.47;7386099;19;20017;-48
2022/11/15 11:47:38;;;;;;;536.03;484.77;;;;;;;7.80;100.00;97853.53;7383739;19;20022;-48
2022/11/15 11:50:21;;;;;;;518.90;469.13;;;;;;;8.21;100.00;97864.41;7390009;19;20018;-48
2022/11/15 11:56:22;;;;;;;538.20;483.77;;;;;;;8.08;100.00;97861.63;7383512;19;20035;-47
2022/11/15 11:58:57;;;;;;;510.83;460.88;;;;;;;8.34;100.00;97849.66;7389851;19;20402;-48
2022/11/15 12:01:33;;;;;;;497.70;448.27;;;;;;;8.09;100.00;97844.97;7383312;19;20006;-52
2022/11/15 12:04:14;;;;;;;493.45;444.40;;;;;;;8.12;100.00;97831.69;7387548;19;20070;-48
2022/11/15 12:06:56;;;;;;;486.98;438.38;;;;;;;7.90;100.00;97839.03;7385147;19;20481;-57
2022/11/15 12:09:37;;;;;;;478.33;430.27;;;;;;;8.01;100.00;97843.66;7386752;19;20799;-47
2022/11/15 12:12:18;;;;;;;477.30;428.63;;;;;;;8.02;100.00;97837.50;7384572;19;20017;-53
2022/11/15 12:14:56;;;;;;;488.33;438.40;;;;;;;8.03;100.00;97845.28;7387960;19;20038;-47
2022/11/15 12:17:31;;;;;;;;;;;;;;;7.90;100.00;97831.19;7386628;19;20011;-57
2022/11/15 12:20:07;;;;;;;535.90;483.47;;;;;;;7.94;100.00;97830.06;7387414;19;19915;-48
2022/11/15 12:22:50;;;;;;;576.28;520.35;;;;;;;7.95;100.00;97826.53;7386258;19;20603;-48
2022/11/15 12:25:28;;;;;;;610.53;550.00;;;;;;;7.93;100.00;97824.91;7382291;19;20026;-50
2022/11/15 12:28:07;;;;;;;497.90;448.15;;;;;;;8.17;100.00;97810.50;7384632;19;20159;-48
2022/11/15 12:30:51;;;;;;;494.60;445.17;;;;;;;8.39;100.00;97809.16;7387113;19;20007;-47
2022/11/15 12:33:41;;;;;;;485.20;436.95;;;;;;;8.02;100.00;97811.34;7388063;19;20358;-47
2022/11/15 12:36:18;;;;;;;479.77;432.02;;;;;;;7.98;100.00;97815.06;7388270;19;20401;-47
2022/11/15 12:39:03;;;;;;;466.90;420.30;;;;;;;8.17;100.00;97808.69;7385956;19;20420;-59
2022/11/15 12:41:37;;;;;;;458.48;412.48;;;;;;;8.28;100.00;97800.25;7386461;19;20014;-51
2022/11/15 12:44:11;;;;;;;473.27;425.75;;;;;;;8.45;100.00;97804.53;7385752;19;20027;-47
2022/11/15 12:47:07;;;;;;;480.83;432.55;;;;;;;8.37;100.00;97799.72;7385220;19;20018;-48
2022/11/15 12:49:50;;;;;;;;;;;;;;;8.28;100.00;97798.47;7380884;19;20042;-47
2022/11/15 12:52:29;;;;;;;500.02;451.77;;;;;;;8.08;100.00;97793.53;7386232;19;20327;-49
2022/11/15 12:55:37;;;;;;;490.48;442.13;;;;;;;8.38;100.00;97790.09;7384326;19;20010;-47
2022/11/15 12:58:33;;;;;;;467.90;421.10;;;;;;;8.69;100.00;97785.56;7382956;19;20010;-58
2022/11/15 13:01:06;;;;;;;450.70;404.70;;;;;;;8.53;100.00;97776.91;7382859;19;20446;-47
2022/11/15 13:03:40;;;;;;;504.30;455.30;;;;;;;8.43;100.00;97774.94;7374244;19;20469;-47
2022/11/15 13:06:43;;;;;;;501.77;453.90;;;;;;;8.50;100.00;97771.00;7384271;19;20013;-54
2022/11/15 13:09:46;;;;;;;483.25;435.15;;;;;;;8.34;100.00;97765.81;7386325;19;20007;-48